createdAt,value
2023-01-19T00:01:25.992Z,98791.79
2023-01-19T00:03:53.628Z,98802.07
2023-01-19T00:06:21.325Z,98807.04
2023-01-19T00:08:50.203Z,98813.89
2023-01-19T00:11:18.091Z,98817.14
2023-01-19T00:13:53.477Z,98817.48
2023-01-19T00:16:23.217Z,98815.56
2023-01-19T00:18:52.347Z,98818.81
2023-01-19T00:21:21.654Z,98823.27
2023-01-19T00:23:51.171Z,98827.58
2023-01-19T00:26:21.943Z,98827.45
2023-01-19T00:28:50.328Z,98833.46
2023-01-19T00:31:20.697Z,98834.14
2023-01-19T00:33:49.221Z,98831.60
2023-01-19T00:36:17.043Z,98839.31
2023-01-19T00:38:44.930Z,98844.09
2023-01-19T00:41:12.578Z,98849.55
2023-01-19T00:43:40.209Z,98860.67
2023-01-19T00:46:07.940Z,98865.27
2023-01-19T00:48:35.732Z,98863.52
2023-01-19T00:51:03.614Z,98869.14
2023-01-19T00:53:32.471Z,98871.16
2023-01-19T00:56:00.257Z,98870.27
2023-01-19T00:58:27.972Z,98878.15
2023-01-19T01:00:57.843Z,98885.48
2023-01-19T01:03:28.072Z,98891.81
2023-01-19T01:05:56.044Z,98898.50
2023-01-19T01:08:23.837Z,98905.71
2023-01-19T01:10:51.940Z,98909.66
2023-01-19T01:13:21.695Z,98916.20
2023-01-19T01:15:54.184Z,98918.79
2023-01-19T01:18:22.484Z,98920.49
2023-01-19T01:20:50.251Z,98921.17
2023-01-19T01:23:22.605Z,98924.44
2023-01-19T01:25:50.272Z,98927.70
2023-01-19T01:28:18.018Z,98929.58
2023-01-19T01:30:45.684Z,98924.94
2023-01-19T01:33:13.743Z,98926.98
2023-01-19T01:35:41.478Z,98928.15
2023-01-19T01:38:09.385Z,98933.27
2023-01-19T01:40:40.406Z,98937.38
2023-01-19T01:43:13.291Z,98940.80
2023-01-19T01:45:41.995Z,98946.45
2023-01-19T01:48:30.870Z,98951.73
2023-01-19T01:51:22.760Z,98958.42
2023-01-19T01:54:10.249Z,98955.52
2023-01-19T01:56:41.565Z,98960.30
2023-01-19T01:59:26.202Z,98952.59
2023-01-19T02:02:15.666Z,98955.52
2023-01-19T02:05:06.379Z,98956.36
2023-01-19T02:08:05.862Z,98962.34
2023-01-19T02:10:49.627Z,98960.94
2023-01-19T02:13:21.325Z,98960.41
2023-01-19T02:15:51.872Z,98962.64
2023-01-19T02:18:22.342Z,98961.95
2023-01-19T02:21:21.854Z,98959.00
2023-01-19T02:24:02.952Z,98958.13
2023-01-19T02:26:38.945Z,98956.58
2023-01-19T02:29:12.771Z,98955.69
2023-01-19T02:31:41.041Z,98955.67
2023-01-19T02:34:11.472Z,98955.31
2023-01-19T02:36:50.231Z,98957.52
2023-01-19T02:39:21.644Z,98956.84
2023-01-19T02:41:55.692Z,98956.49
2023-01-19T02:44:25.153Z,98955.77
2023-01-19T02:46:56.851Z,98951.45
2023-01-19T02:49:29.755Z,98945.42
2023-01-19T02:51:59.118Z,98948.49
2023-01-19T02:54:58.637Z,98950.20
2023-01-19T02:57:43.702Z,98948.46
2023-01-19T03:00:23.215Z,98945.53
2023-01-19T03:03:10.417Z,98947.55
2023-01-19T03:05:57.086Z,98943.43
2023-01-19T03:08:33.042Z,98943.42
2023-01-19T03:11:08.253Z,98939.45
2023-01-19T03:14:00.426Z,98934.30
2023-01-19T03:16:42.135Z,98931.91
2023-01-19T03:19:19.643Z,98926.23
2023-01-19T03:21:52.120Z,98927.29
2023-01-19T03:24:22.633Z,98921.77
2023-01-19T03:26:58.678Z,98919.38
2023-01-19T03:29:34.844Z,98917.14
2023-01-19T03:32:09.387Z,98914.23
2023-01-19T03:34:39.996Z,98912.53
2023-01-19T03:37:10.361Z,98910.13
2023-01-19T03:39:38.123Z,98912.38
2023-01-19T03:42:10.756Z,98911.52
2023-01-19T03:44:40.813Z,98911.87
2023-01-19T03:47:11.160Z,98914.64
2023-01-19T03:49:41.599Z,98919.62
2023-01-19T03:52:09.392Z,98921.52
2023-01-19T03:54:37.167Z,98923.06
2023-01-19T03:57:04.908Z,98925.98
2023-01-19T03:59:32.593Z,98927.89
2023-01-19T04:02:00.316Z,98930.63
2023-01-19T04:04:27.979Z,98937.14
2023-01-19T04:06:55.617Z,98938.52
2023-01-19T04:09:23.263Z,98939.88
2023-01-19T04:11:51.396Z,98937.82
2023-01-19T04:14:19.136Z,98936.12
2023-01-19T04:16:46.767Z,98933.24
2023-01-19T04:19:14.511Z,98936.52
2023-01-19T04:21:42.220Z,98932.90
2023-01-19T04:24:10.737Z,98933.55
2023-01-19T04:26:38.480Z,98936.96
2023-01-19T04:29:06.267Z,98942.96
2023-01-19T04:31:35.741Z,98943.98
2023-01-19T04:34:04.028Z,98948.08
2023-01-19T04:36:31.694Z,98952.18
2023-01-19T04:38:59.350Z,98953.35
2023-01-19T04:41:26.940Z,98958.65
2023-01-19T04:43:54.678Z,98960.71
2023-01-19T04:46:22.367Z,98960.20
2023-01-19T04:48:50.163Z,98968.27
2023-01-19T04:51:17.928Z,98972.22
2023-01-19T04:53:45.883Z,98974.14
2023-01-19T04:56:13.597Z,98978.96
2023-01-19T04:58:41.863Z,98982.25
2023-01-19T05:01:09.935Z,98987.40
2023-01-19T05:03:37.757Z,98989.29
2023-01-19T05:06:06.480Z,98995.15
2023-01-19T05:08:34.133Z,99004.92
2023-01-19T05:11:01.857Z,99012.14
2023-01-19T05:13:29.552Z,99012.66
2023-01-19T05:15:57.315Z,99012.33
2023-01-19T05:18:24.932Z,99013.88
2023-01-19T05:20:52.603Z,99017.30
2023-01-19T05:23:20.733Z,99022.64
2023-01-19T05:25:48.417Z,99026.76
2023-01-19T05:28:17.074Z,99026.09
2023-01-19T05:30:44.719Z,99028.51
2023-01-19T05:33:12.453Z,99033.83
2023-01-19T05:35:40.098Z,99037.77
2023-01-19T05:38:07.724Z,99037.59
2023-01-19T05:40:35.404Z,99041.18
2023-01-19T05:43:05.445Z,99047.34
2023-01-19T05:45:33.754Z,99055.56
2023-01-19T05:48:02.020Z,99063.78
2023-01-19T05:50:29.654Z,99069.07
2023-01-19T05:52:57.909Z,99072.85
2023-01-19T05:55:26.675Z,99078.52
2023-01-19T05:57:54.831Z,99078.16
2023-01-19T06:00:22.656Z,99085.02
2023-01-19T06:02:50.727Z,99090.83
2023-01-19T06:05:18.473Z,99093.23
2023-01-19T06:07:46.393Z,99093.04
2023-01-19T06:10:14.027Z,99098.01
2023-01-19T06:12:41.729Z,99100.73
2023-01-19T06:15:09.823Z,99106.21
2023-01-19T06:17:37.639Z,99109.98
2023-01-19T06:20:06.945Z,99110.65
2023-01-19T06:22:34.897Z,99116.82
2023-01-19T06:25:02.829Z,99126.09
2023-01-19T06:27:30.624Z,99131.05
2023-01-19T06:29:58.230Z,99138.92
2023-01-19T06:32:25.914Z,99142.20
2023-01-19T06:34:54.209Z,99141.55
2023-01-19T06:37:22.235Z,99142.09
2023-01-19T06:39:49.855Z,99145.51
2023-01-19T06:42:17.526Z,99150.30
2023-01-19T06:44:47.656Z,99148.92
2023-01-19T06:47:16.711Z,99154.38
2023-01-19T06:49:44.467Z,99155.23
2023-01-19T06:52:16.022Z,99152.69
2023-01-19T06:54:46.212Z,99159.37
2023-01-19T06:57:14.386Z,99164.67
2023-01-19T06:59:42.562Z,99173.09
2023-01-19T07:02:27.331Z,99183.35
2023-01-19T07:04:56.695Z,99189.22
2023-01-19T07:07:24.566Z,99187.85
2023-01-19T07:09:54.055Z,99190.60
2023-01-19T07:12:22.808Z,99194.54
2023-01-19T07:14:51.416Z,99192.13
2023-01-19T07:17:19.838Z,99188.70
2023-01-19T07:19:47.789Z,99187.32
2023-01-19T07:22:15.695Z,99183.52
2023-01-19T07:24:43.504Z,99199.15
2023-01-19T07:27:16.278Z,99202.75
2023-01-19T07:29:44.111Z,99197.27
2023-01-19T07:32:12.599Z,99188.36
2023-01-19T07:34:40.410Z,99188.70
2023-01-19T07:37:08.289Z,99195.41
2023-01-19T07:39:36.824Z,99199.89
2023-01-19T07:42:05.086Z,99195.43
2023-01-19T07:44:33.074Z,99191.65
2023-01-19T07:47:00.868Z,99195.40
2023-01-19T07:49:28.797Z,99197.97
2023-01-19T07:51:56.758Z,99197.43
2023-01-19T07:54:24.464Z,99202.02
2023-01-19T07:56:55.232Z,99210.06
2023-01-19T07:59:26.115Z,99214.84
2023-01-19T08:01:54.214Z,99213.09
2023-01-19T08:04:22.259Z,99209.48
2023-01-19T08:06:50.307Z,99207.10
2023-01-19T08:09:18.071Z,99204.84
2023-01-19T08:11:45.812Z,99208.91
2023-01-19T08:14:13.476Z,99208.04
2023-01-19T08:16:41.138Z,99209.88
2023-01-19T08:19:08.912Z,99216.88
2023-01-19T08:21:39.088Z,99217.70
2023-01-19T08:24:07.786Z,99218.17
2023-01-19T08:26:36.480Z,99215.39
2023-01-19T08:29:08.721Z,99211.95
2023-01-19T08:31:40.087Z,99221.23
2023-01-19T08:34:08.452Z,99225.33
2023-01-19T08:36:36.083Z,99225.49
2023-01-19T08:39:03.825Z,99227.17
2023-01-19T08:41:32.413Z,99231.96
2023-01-19T08:44:00.124Z,99231.95
2023-01-19T08:46:28.023Z,99238.17
2023-01-19T08:48:56.109Z,99245.83
2023-01-19T08:51:24.263Z,99250.86
2023-01-19T08:53:52.038Z,99250.77
2023-01-19T08:56:20.982Z,99247.02
2023-01-19T08:58:59.500Z,99250.10
2023-01-19T09:01:37.394Z,99249.05
2023-01-19T09:04:05.578Z,99249.04
2023-01-19T09:06:34.108Z,99244.79
2023-01-19T09:09:01.768Z,99249.27
2023-01-19T09:11:30.788Z,99248.41
2023-01-19T09:13:58.690Z,99246.02
2023-01-19T09:16:27.260Z,99248.63
2023-01-19T09:18:55.330Z,99251.39
2023-01-19T09:21:23.303Z,99252.98
2023-01-19T09:23:51.715Z,99253.66
2023-01-19T09:26:19.498Z,99252.85
2023-01-19T09:28:47.151Z,99254.07
2023-01-19T09:31:15.236Z,99256.14
2023-01-19T09:33:43.072Z,99258.05
2023-01-19T09:36:10.774Z,99267.52
2023-01-19T09:38:38.520Z,99267.20
2023-01-19T09:41:17.437Z,99265.52
2023-01-19T09:43:51.440Z,99257.85
2023-01-19T09:46:39.013Z,99256.83
2023-01-19T09:49:13.289Z,99256.83
2023-01-19T09:51:46.095Z,99251.51
2023-01-19T09:54:22.952Z,99253.27
2023-01-19T09:56:52.860Z,99257.14
2023-01-19T09:59:28.289Z,99256.44
2023-01-19T10:02:19.196Z,99262.19
2023-01-19T10:05:26.495Z,99262.25
2023-01-19T10:08:03.575Z,99261.35
2023-01-19T10:10:32.417Z,99257.49
2023-01-19T10:13:19.269Z,99257.80
2023-01-19T10:16:02.853Z,99258.77
2023-01-19T10:18:53.514Z,99257.70
2023-01-19T10:21:43.601Z,99257.17
2023-01-19T10:24:35.913Z,99255.03
2023-01-19T10:27:10.368Z,99259.08
2023-01-19T10:29:38.323Z,99255.45
2023-01-19T10:32:26.063Z,99258.81
2023-01-19T10:34:55.728Z,99260.63
2023-01-19T10:37:34.477Z,99253.16
2023-01-19T10:40:21.224Z,99251.92
2023-01-19T10:42:48.997Z,99250.16
2023-01-19T10:45:36.700Z,99246.86
2023-01-19T10:48:08.219Z,99244.95
2023-01-19T10:50:41.694Z,99246.48
2023-01-19T10:53:22.447Z,99246.31
2023-01-19T10:56:12.094Z,99238.56
2023-01-19T10:58:40.697Z,99234.73
2023-01-19T11:01:25.786Z,99229.02
2023-01-19T11:03:57.075Z,99234.80
2023-01-19T11:06:28.126Z,99239.09
2023-01-19T11:09:20.561Z,99237.37
2023-01-19T11:11:51.732Z,99235.96
2023-01-19T11:14:24.783Z,99236.33
2023-01-19T11:16:58.310Z,99238.66
2023-01-19T11:19:30.016Z,99240.48
2023-01-19T11:22:24.881Z,99242.66
2023-01-19T11:24:53.082Z,99248.48
2023-01-19T11:27:21.777Z,99246.56
2023-01-19T11:29:58.904Z,99245.53
2023-01-19T11:32:28.435Z,99247.11
2023-01-19T11:34:56.610Z,99250.39
2023-01-19T11:37:31.493Z,99244.36
2023-01-19T11:40:02.810Z,99244.20
2023-01-19T11:42:33.847Z,99238.17
2023-01-19T11:45:19.853Z,99232.16
2023-01-19T11:47:56.723Z,99225.45
2023-01-19T11:50:34.727Z,99229.11
2023-01-19T11:53:25.624Z,99227.55
2023-01-19T11:56:14.036Z,99225.97
2023-01-19T11:58:47.347Z,99221.48
2023-01-19T12:01:38.499Z,99225.78
2023-01-19T12:04:19.679Z,99225.44
2023-01-19T12:06:53.076Z,99230.77
2023-01-19T12:09:50.804Z,99228.02
2023-01-19T12:12:27.307Z,99229.57
2023-01-19T12:14:57.646Z,99234.21
2023-01-19T12:17:33.477Z,99233.05
2023-01-19T12:20:13.526Z,99226.02
2023-01-19T12:22:50.716Z,99224.35
2023-01-19T12:25:28.286Z,99230.70
2023-01-19T12:27:57.607Z,99235.50
2023-01-19T12:30:29.039Z,99232.22
2023-01-19T12:33:29.170Z,99231.52
2023-01-19T12:36:00.798Z,99229.94
2023-01-19T12:39:00.326Z,99235.77
2023-01-19T12:41:47.530Z,99241.76
2023-01-19T12:44:21.999Z,99235.03
2023-01-19T12:47:24.129Z,99238.16
2023-01-19T12:49:56.494Z,99235.77
2023-01-19T12:52:40.504Z,99235.77
2023-01-19T12:55:14.818Z,99231.30
2023-01-19T12:58:03.604Z,99228.41
2023-01-19T13:00:41.107Z,99223.94
2023-01-19T13:03:24.934Z,99217.23
2023-01-19T13:05:55.238Z,99215.91
2023-01-19T13:08:30.389Z,99215.39
2023-01-19T13:11:09.547Z,99216.59
2023-01-19T13:14:03.361Z,99214.52
2023-01-19T13:16:31.062Z,99215.05
2023-01-19T13:19:14.259Z,99211.46
2023-01-19T13:21:47.452Z,99216.11
2023-01-19T13:24:22.633Z,99218.15
2023-01-19T13:26:50.282Z,99215.78
2023-01-19T13:29:36.712Z,99219.00
2023-01-19T13:32:18.690Z,99217.45
2023-01-19T13:34:54.667Z,99216.20
2023-01-19T13:37:25.886Z,99220.02
2023-01-19T13:39:55.203Z,99222.63
2023-01-19T13:42:33.182Z,99221.61
2023-01-19T13:45:07.115Z,99224.70
2023-01-19T13:47:42.000Z,99229.88
2023-01-19T13:50:20.449Z,99230.57
2023-01-19T13:52:50.798Z,99231.61
2023-01-19T13:55:20.546Z,99226.80
2023-01-19T13:57:50.327Z,99229.41
2023-01-19T14:00:23.925Z,99231.34
2023-01-19T14:03:08.497Z,99233.58
2023-01-19T14:05:41.773Z,99235.13
2023-01-19T14:08:12.896Z,99238.23
2023-01-19T14:10:53.360Z,99243.05
2023-01-19T14:13:41.634Z,99246.31
2023-01-19T14:16:12.192Z,99246.69
2023-01-19T14:18:39.863Z,99250.70
2023-01-19T14:21:08.829Z,99252.45
2023-01-19T14:23:36.687Z,99251.58
2023-01-19T14:26:04.869Z,99247.47
2023-01-19T14:28:35.324Z,99246.27
2023-01-19T14:31:20.695Z,99247.30
2023-01-19T14:33:51.717Z,99254.02
2023-01-19T14:36:26.566Z,99257.83
2023-01-19T14:38:59.402Z,99263.16
2023-01-19T14:41:48.977Z,99265.05
2023-01-19T14:44:38.802Z,99268.70
2023-01-19T14:47:20.572Z,99271.15
2023-01-19T14:49:48.371Z,99274.77
2023-01-19T14:52:25.098Z,99277.20
2023-01-19T14:54:55.586Z,99277.38
2023-01-19T14:57:24.713Z,99272.39
2023-01-19T14:59:52.892Z,99272.25
2023-01-19T15:02:20.746Z,99272.25
2023-01-19T15:04:48.763Z,99267.78
2023-01-19T15:07:19.224Z,99271.42
2023-01-19T15:09:48.153Z,99272.30
2023-01-19T15:12:18.560Z,99271.96
2023-01-19T15:14:49.711Z,99267.34
2023-01-19T15:17:26.465Z,99272.67
2023-01-19T15:19:55.404Z,99276.45
2023-01-19T15:22:28.261Z,99279.20
2023-01-19T15:24:59.889Z,99285.56
2023-01-19T15:27:27.780Z,99280.92
2023-01-19T15:29:55.492Z,99285.73
2023-01-19T15:32:23.142Z,99293.64
2023-01-19T15:34:50.814Z,99293.84
2023-01-19T15:37:18.450Z,99296.77
2023-01-19T15:39:47.458Z,99293.33
2023-01-19T15:42:15.584Z,99292.09
2023-01-19T15:44:44.995Z,99297.61
2023-01-19T15:47:12.694Z,99303.45
2023-01-19T15:49:40.329Z,99302.27
2023-01-19T15:52:07.981Z,99300.73
2023-01-19T15:54:35.631Z,99299.17
2023-01-19T15:57:03.308Z,99296.59
2023-01-19T15:59:31.155Z,99298.49
2023-01-19T16:01:59.012Z,99297.47
2023-01-19T16:04:26.858Z,99306.26
2023-01-19T16:06:54.717Z,99306.96
2023-01-19T16:09:22.347Z,99310.90
2023-01-19T16:11:53.173Z,99315.89
2023-01-19T16:14:20.920Z,99319.18
2023-01-19T16:16:49.218Z,99320.41
2023-01-19T16:19:17.043Z,99321.62
2023-01-19T16:21:44.807Z,99324.02
2023-01-19T16:24:12.585Z,99326.45
2023-01-19T16:26:40.355Z,99332.12
2023-01-19T16:29:10.749Z,99333.34
2023-01-19T16:31:39.480Z,99333.16
2023-01-19T16:34:10.097Z,99333.33
2023-01-19T16:36:41.548Z,99334.70
2023-01-19T16:39:13.661Z,99332.64
2023-01-19T16:41:42.480Z,99331.95
2023-01-19T16:44:12.072Z,99332.48
2023-01-19T16:46:42.174Z,99333.50
2023-01-19T16:49:14.240Z,99333.84
2023-01-19T16:51:42.412Z,99336.93
2023-01-19T16:54:15.338Z,99335.21
2023-01-19T16:56:43.584Z,99332.64
2023-01-19T16:59:12.937Z,99329.54
2023-01-19T17:01:41.732Z,99335.02
2023-01-19T17:04:09.948Z,99333.48
2023-01-19T17:06:38.038Z,99337.25
2023-01-19T17:09:15.047Z,99334.85
2023-01-19T17:11:46.312Z,99336.89
2023-01-19T17:15:19.190Z,99340.14
2023-01-19T17:18:14.992Z,99336.87
2023-01-19T17:20:42.654Z,99333.77
2023-01-19T17:23:10.561Z,99334.65
2023-01-19T17:25:38.382Z,99332.06
2023-01-19T17:28:06.312Z,99331.72
2023-01-19T17:30:34.111Z,99328.11
2023-01-19T17:33:02.218Z,99328.46
2023-01-19T17:35:30.188Z,99326.23
2023-01-19T17:37:58.265Z,99328.12
2023-01-19T17:40:26.068Z,99329.70
2023-01-19T17:42:53.754Z,99333.64
2023-01-19T17:45:21.668Z,99332.08
2023-01-19T17:47:50.587Z,99334.81
2023-01-19T17:50:20.963Z,99335.50
2023-01-19T17:52:48.648Z,99336.36
2023-01-19T17:55:18.251Z,99335.51
2023-01-19T17:57:45.978Z,99336.02
2023-01-19T18:00:15.023Z,99339.61
2023-01-19T18:02:43.314Z,99340.98
2023-01-19T18:05:12.637Z,99344.10
2023-01-19T18:07:40.807Z,99342.75
2023-01-19T18:10:09.571Z,99340.17
2023-01-19T18:12:37.485Z,99344.81
2023-01-19T18:15:08.711Z,99341.20
2023-01-19T18:17:36.430Z,99341.89
2023-01-19T18:20:05.319Z,99339.14
2023-01-19T18:22:33.491Z,99340.17
2023-01-19T18:25:01.639Z,99341.38
2023-01-19T18:27:29.365Z,99338.13
2023-01-19T18:29:57.057Z,99339.00
2023-01-19T18:32:27.106Z,99336.75
2023-01-19T18:34:54.903Z,99336.75
2023-01-19T18:37:22.663Z,99337.08
2023-01-19T18:39:50.460Z,99340.89
2023-01-19T18:42:18.141Z,99339.69
2023-01-19T18:44:45.795Z,99338.34
2023-01-19T18:47:13.446Z,99334.25
2023-01-19T18:49:41.133Z,99333.91
2023-01-19T18:52:08.895Z,99331.84
2023-01-19T18:54:36.492Z,99328.75
2023-01-19T18:57:04.183Z,99328.77
2023-01-19T18:59:31.853Z,99330.32
2023-01-19T19:02:01.671Z,99334.63
2023-01-19T19:04:29.625Z,99342.38
2023-01-19T19:06:57.306Z,99344.98
2023-01-19T19:09:25.100Z,99349.62
2023-01-19T19:11:52.766Z,99349.62
2023-01-19T19:14:20.493Z,99350.13
2023-01-19T19:16:48.155Z,99348.94
2023-01-19T19:19:16.596Z,99350.00
2023-01-19T19:21:44.736Z,99355.70
2023-01-19T19:24:13.365Z,99351.94
2023-01-19T19:26:41.867Z,99354.20
2023-01-19T19:29:09.529Z,99349.52
2023-01-19T19:31:37.574Z,99348.84
2023-01-19T19:34:05.341Z,99351.05
2023-01-19T19:36:33.417Z,99352.77
2023-01-19T19:39:01.132Z,99352.77
2023-01-19T19:41:29.380Z,99350.54
2023-01-19T19:43:57.109Z,99351.91
2023-01-19T19:46:26.557Z,99351.39
2023-01-19T19:48:54.806Z,99354.19
2023-01-19T19:51:26.968Z,99355.23
2023-01-19T19:53:57.365Z,99354.89
2023-01-19T19:56:27.912Z,99356.95
2023-01-19T19:58:57.578Z,99352.52
2023-01-19T20:01:33.540Z,99352.52
2023-01-19T20:04:09.968Z,99350.64
2023-01-19T20:06:44.477Z,99348.94
2023-01-19T20:09:14.319Z,99349.14
2023-01-19T20:11:44.449Z,99352.58
2023-01-19T20:14:14.013Z,99347.61
2023-01-19T20:16:42.381Z,99351.05
2023-01-19T20:19:10.819Z,99347.98
2023-01-19T20:21:43.794Z,99346.09
2023-01-19T20:24:18.136Z,99350.73
2023-01-19T20:26:50.345Z,99353.65
2023-01-19T20:29:19.299Z,99359.69
2023-01-19T20:31:54.055Z,99362.95
2023-01-19T20:34:25.201Z,99363.79
2023-01-19T20:36:54.037Z,99362.44
2023-01-19T20:39:23.455Z,99365.36
2023-01-19T20:41:52.492Z,99366.23
2023-01-19T20:44:23.709Z,99373.96
2023-01-19T20:46:51.829Z,99377.56
2023-01-19T20:49:20.329Z,99383.58
2023-01-19T20:51:48.208Z,99386.33
2023-01-19T20:54:17.995Z,99386.52
2023-01-19T20:56:45.716Z,99388.91
2023-01-19T20:59:13.767Z,99391.82
2023-01-19T21:01:43.199Z,99390.45
2023-01-19T21:04:12.101Z,99394.20
2023-01-19T21:06:41.080Z,99394.37
2023-01-19T21:09:10.884Z,99398.81
2023-01-19T21:11:39.400Z,99398.11
2023-01-19T21:14:07.762Z,99402.58
2023-01-19T21:16:35.967Z,99406.02
2023-01-19T21:19:04.888Z,99410.48
2023-01-19T21:21:32.685Z,99412.04
2023-01-19T21:24:01.941Z,99409.30
2023-01-19T21:26:30.398Z,99409.65
2023-01-19T21:28:59.045Z,99413.94
2023-01-19T21:31:27.892Z,99413.08
2023-01-19T21:33:57.737Z,99416.51
2023-01-19T21:36:26.129Z,99416.99
2023-01-19T21:39:00.057Z,99415.45
2023-01-19T21:41:29.811Z,99414.58
2023-01-19T21:44:00.016Z,99419.56
2023-01-19T21:46:33.327Z,99418.86
2023-01-19T21:49:03.187Z,99419.71
2023-01-19T21:51:33.758Z,99419.19
2023-01-19T21:54:05.216Z,99420.55
2023-01-19T21:56:34.753Z,99424.16
2023-01-19T21:59:03.288Z,99428.94
2023-01-19T22:01:32.830Z,99433.05
2023-01-19T22:04:00.604Z,99433.38
2023-01-19T22:06:28.678Z,99433.54
2023-01-19T22:08:57.945Z,99437.65
2023-01-19T22:11:25.759Z,99438.84
2023-01-19T22:13:54.335Z,99440.23
2023-01-19T22:16:23.163Z,99439.69
2023-01-19T22:18:54.063Z,99442.42
2023-01-19T22:21:24.767Z,99440.19
2023-01-19T22:23:55.007Z,99440.02
2023-01-19T22:26:22.797Z,99442.60
2023-01-19T22:28:57.052Z,99440.73
2023-01-19T22:31:26.353Z,99446.05
2023-01-19T22:33:54.960Z,99448.95
2023-01-19T22:36:25.024Z,99450.66
2023-01-19T22:39:14.536Z,99450.49
2023-01-19T22:41:45.647Z,99454.08
2023-01-19T22:44:20.785Z,99459.57
2023-01-19T22:46:50.102Z,99461.28
2023-01-19T22:49:18.412Z,99464.54
2023-01-19T22:51:46.873Z,99465.91
2023-01-19T22:54:14.807Z,99469.88
2023-01-19T22:56:42.592Z,99474.85
2023-01-19T22:59:10.253Z,99476.73
2023-01-19T23:01:41.553Z,99478.63
2023-01-19T23:04:12.928Z,99479.65
2023-01-19T23:06:41.122Z,99483.10
2023-01-19T23:09:13.471Z,99487.39
2023-01-19T23:11:43.828Z,99488.77
2023-01-19T23:14:14.945Z,99490.33
2023-01-19T23:16:42.767Z,99491.54
2023-01-19T23:19:12.183Z,99494.11
2023-01-19T23:21:40.666Z,99497.88
2023-01-19T23:24:09.685Z,99499.63
2023-01-19T23:26:38.433Z,99499.45
2023-01-19T23:29:11.111Z,99502.73
2023-01-19T23:31:42.269Z,99503.42
2023-01-19T23:34:12.188Z,99509.77
2023-01-19T23:36:41.403Z,99511.16
2023-01-19T23:39:18.056Z,99512.88
2023-01-19T23:41:46.209Z,99514.24
2023-01-19T23:44:13.938Z,99516.13
2023-01-19T23:46:41.669Z,99520.24
2023-01-19T23:49:09.541Z,99519.05
2023-01-19T23:51:37.283Z,99524.20
2023-01-19T23:54:05.819Z,99523.85
2023-01-19T23:56:36.191Z,99526.95
2023-01-19T23:59:06.748Z,99531.59
